Time;durP1;ratioP1;P1;durP2;ratioP2;P2;SDS_P1;SDS_P2;PMS_P1;PMS_P2;Temp;Humidity;BMP_temperature;BMP_pressure;BME280_temperature;BME280_humidity;BME280_pressure;Samples;Min_cycle;Max_cycle;Signal;HPM_P1;HPM_P2
2021/08/24 00:00:14;;;;;;;12.25;7.72;;;13.70;99.90;;;;;;5058693;28;20059;-62
2021/08/24 00:02:39;;;;;;;13.32;7.30;;;13.60;99.90;;;;;;5045764;28;20109;-62
2021/08/24 00:05:07;;;;;;;13.55;7.47;;;13.60;99.90;;;;;;5056183;28;20061;-62
2021/08/24 00:07:33;;;;;;;10.15;6.72;;;13.60;99.90;;;;;;5050141;28;20033;-62
2021/08/24 00:09:59;;;;;;;13.73;8.00;;;13.60;99.90;;;;;;5057152;28;20049;-62
2021/08/24 00:12:24;;;;;;;15.90;9.07;;;13.60;99.90;;;;;;5064947;28;20049;-62
2021/08/24 00:14:50;;;;;;;14.60;7.63;;;13.50;99.90;;;;;;5056208;28;20045;-62
2021/08/24 00:17:15;;;;;;;15.57;7.57;;;13.50;99.90;;;;;;5062499;28;20056;-62
2021/08/24 00:19:41;;;;;;;18.20;8.65;;;13.50;99.90;;;;;;5074855;28;20090;-62
2021/08/24 00:22:07;;;;;;;13.80;7.30;;;13.40;99.90;;;;;;5065007;28;20044;-62
2021/08/24 00:24:33;;;;;;;15.60;8.48;;;13.40;99.90;;;;;;5061896;28;20091;-62
2021/08/24 00:26:58;;;;;;;13.73;7.40;;;13.30;99.90;;;;;;5075892;28;20044;-62
2021/08/24 00:29:24;;;;;;;13.25;8.13;;;13.30;99.90;;;;;;5060458;28;20073;-62
2021/08/24 00:31:50;;;;;;;15.18;8.63;;;13.30;99.90;;;;;;5077897;28;20036;-62
2021/08/24 00:34:15;;;;;;;13.82;8.50;;;13.20;99.90;;;;;;5066755;28;20049;-62
2021/08/24 00:36:41;;;;;;;14.00;8.10;;;13.10;99.90;;;;;;5063178;28;20499;-62
2021/08/24 00:39:07;;;;;;;14.15;8.93;;;13.10;99.90;;;;;;5061555;28;20053;-62
2021/08/24 00:41:34;;;;;;;17.88;9.20;;;13.00;99.90;;;;;;5073981;28;20044;-62
2021/08/24 00:44:00;;;;;;;15.90;9.38;;;13.10;99.90;;;;;;5072436;28;20088;-62
2021/08/24 00:46:25;;;;;;;17.13;9.00;;;13.00;99.90;;;;;;5068611;28;20037;-62
2021/08/24 00:48:52;;;;;;;16.45;9.68;;;13.10;99.90;;;;;;5084583;28;20045;-62
2021/08/24 00:51:21;;;;;;;20.58;10.00;;;13.00;99.90;;;;;;5075789;28;20056;-62
2021/08/24 00:53:48;;;;;;;16.38;9.85;;;12.90;99.90;;;;;;5061635;28;20049;-62
2021/08/24 00:56:14;;;;;;;22.48;10.15;;;12.90;99.90;;;;;;5060988;28;20131;-62
2021/08/24 00:58:40;;;;;;;17.85;9.82;;;12.90;99.90;;;;;;5075115;28;20041;-62
2021/08/24 01:01:06;;;;;;;22.77;9.00;;;12.80;99.90;;;;;;5059297;28;20037;-62
2021/08/24 01:03:39;;;;;;;15.90;9.75;;;12.80;99.90;;;;;;5077230;28;20041;-62
2021/08/24 01:06:42;;;;;;;14.27;10.75;;;12.70;99.90;;;;;;5079765;28;20033;-62
2021/08/24 01:09:35;;;;;;;20.95;11.45;;;12.70;99.90;;;;;;5031702;28;20053;-62
2021/08/24 01:12:18;;;;;;;20.63;9.93;;;12.70;99.90;;;;;;5041252;28;20045;-62
2021/08/24 01:15:01;;;;;;;17.90;9.90;;;12.60;99.90;;;;;;5042957;28;20444;-63
2021/08/24 01:17:48;;;;;;;18.05;10.80;;;12.60;99.90;;;;;;5035145;28;20068;-63
2021/08/24 01:20:38;;;;;;;17.77;10.57;;;12.50;99.90;;;;;;5041203;28;20042;-63
2021/08/24 01:23:09;;;;;;;17.08;11.75;;;12.50;99.90;;;;;;5034656;28;20076;-61
2021/08/24 01:25:44;;;;;;;18.92;10.73;;;12.60;99.90;;;;;;5040272;28;20084;-63
2021/08/24 01:28:28;;;;;;;27.08;12.60;;;12.60;99.90;;;;;;5032812;28;20064;-63
2021/08/24 01:31:03;;;;;;;18.83;11.18;;;12.70;99.90;;;;;;5039552;28;20053;-63
2021/08/24 01:33:50;;;;;;;29.63;13.52;;;12.70;99.90;;;;;;5033225;28;20188;-63
2021/08/24 01:36:23;;;;;;;21.20;11.70;;;12.80;99.90;;;;;;5039983;28;20049;-64
2021/08/24 01:39:01;;;;;;;19.17;11.52;;;12.80;99.90;;;;;;5035125;28;20053;-61
2021/08/24 01:41:53;;;;;;;18.08;11.68;;;12.80;99.90;;;;;;5039342;28;20114;-63
2021/08/24 01:44:22;;;;;;;19.63;12.25;;;12.90;99.90;;;;;;5040222;28;20105;-62
2021/08/24 01:47:02;;;;;;;22.02;12.57;;;12.90;99.90;;;;;;5084057;28;20412;-61
2021/08/24 01:49:47;;;;;;;21.08;11.52;;;13.00;99.90;;;;;;5060050;28;20114;-62
2021/08/24 01:52:17;;;;;;;19.20;10.82;;;13.00;99.90;;;;;;5082439;28;20052;-61
2021/08/24 01:54:49;;;;;;;16.85;11.15;;;13.00;99.90;;;;;;5067463;28;20069;-61
2021/08/24 01:57:20;;;;;;;16.80;10.07;;;13.00;99.90;;;;;;5081204;28;20089;-61
2021/08/24 01:59:59;;;;;;;19.45;11.25;;;13.00;99.90;;;;;;5064524;28;20084;-62
2021/08/24 02:02:32;;;;;;;17.55;9.85;;;13.00;99.90;;;;;;5063653;28;20108;-63
2021/08/24 02:05:14;;;;;;;20.38;11.65;;;13.10;99.90;;;;;;5061462;28;20539;-63
2021/08/24 02:07:40;;;;;;;19.42;11.85;;;13.10;99.90;;;;;;5080569;28;20131;-63
2021/08/24 02:10:17;;;;;;;23.15;11.65;;;13.10;99.90;;;;;;5062965;28;20041;-61
2021/08/24 02:12:45;;;;;;;20.60;12.02;;;13.10;99.90;;;;;;5076778;28;20043;-63
2021/08/24 02:15:11;;;;;;;;;;;13.10;99.90;;;;;;5060515;28;20082;-63
2021/08/24 02:17:41;;;;;;;24.13;11.27;;;13.10;99.90;;;;;;5075417;28;19976;-62
2021/08/24 02:20:13;;;;;;;30.25;11.13;;;13.10;99.90;;;;;;5060289;28;20470;-62
2021/08/24 02:22:41;;;;;;;18.02;10.88;;;13.10;99.90;;;;;;5064353;28;20045;-63
2021/08/24 02:25:10;;;;;;;20.00;11.32;;;13.10;99.90;;;;;;5053483;28;20037;-62
2021/08/24 02:27:42;;;;;;;23.55;11.93;;;13.00;99.90;;;;;;5061049;28;20048;-63
2021/08/24 02:30:08;;;;;;;15.60;10.32;;;13.00;99.90;;;;;;5078052;28;20048;-63
2021/08/24 02:32:38;;;;;;;22.45;11.88;;;12.90;99.90;;;;;;5062845;28;20099;-61
2021/08/24 02:35:31;;;;;;;20.17;12.77;;;12.90;99.90;;;;;;5076085;28;20068;-63
2021/08/24 02:38:12;;;;;;;27.73;12.38;;;12.90;99.90;;;;;;5061717;28;20055;-63
2021/08/24 02:40:52;;;;;;;26.02;13.02;;;12.90;99.90;;;;;;5074451;28;20040;-61
2021/08/24 02:43:21;;;;;;;23.27;12.60;;;13.00;99.90;;;;;;5060591;28;20040;-62
2021/08/24 02:45:59;;;;;;;24.20;12.50;;;12.90;99.90;;;;;;5073874;28;20040;-63
2021/08/24 02:48:26;;;;;;;30.20;13.85;;;12.90;99.90;;;;;;5047327;28;20037;-63
2021/08/24 02:50:53;;;;;;;26.98;14.10;;;12.80;99.90;;;;;;5070968;28;20037;-63
2021/08/24 02:53:21;;;;;;;29.73;13.10;;;12.80;99.90;;;;;;5068408;28;20074;-62
2021/08/24 02:55:48;;;;;;;21.45;12.45;;;12.80;99.90;;;;;;5069708;28;20053;-62
2021/08/24 02:58:14;;;;;;;27.25;13.23;;;12.60;99.90;;;;;;5069770;28;20044;-62
2021/08/24 03:00:39;;;;;;;21.00;11.70;;;12.60;99.90;;;;;;5069333;28;20048;-62
2021/08/24 03:03:05;;;;;;;32.35;15.13;;;12.60;99.90;;;;;;5082198;28;20071;-62
2021/08/24 03:05:31;;;;;;;22.67;12.55;;;12.50;99.90;;;;;;5067769;28;20052;-61
2021/08/24 03:07:57;;;;;;;26.80;13.05;;;12.60;99.90;;;;;;5080956;28;20503;-62
2021/08/24 03:10:24;;;;;;;28.20;14.95;;;12.60;99.90;;;;;;5065753;28;20064;-62
2021/08/24 03:13:12;;;;;;;22.25;13.13;;;12.50;99.90;;;;;;5079210;28;20102;-62
2021/08/24 03:15:37;;;;;;;27.10;13.77;;;12.50;99.90;;;;;;5057665;28;20100;-62
2021/08/24 03:18:12;;;;;;;18.52;11.93;;;12.50;99.90;;;;;;5078068;28;20079;-62
2021/08/24 03:20:47;;;;;;;22.95;12.80;;;12.50;99.90;;;;;;5062485;28;20475;-61
2021/08/24 03:23:16;;;;;;;19.08;12.00;;;12.50;99.90;;;;;;5076250;28;20032;-61
2021/08/24 03:25:44;;;;;;;20.17;12.60;;;12.60;99.90;;;;;;5059416;28;20090;-62
2021/08/24 03:28:15;;;;;;;25.20;12.75;;;12.50;99.90;;;;;;5064114;28;20040;-62
2021/08/24 03:30:41;;;;;;;22.95;11.65;;;12.50;99.90;;;;;;5080109;28;20041;-62
2021/08/24 03:33:08;;;;;;;14.52;10.30;;;12.40;99.90;;;;;;5065546;28;20534;-62
2021/08/24 03:35:35;;;;;;;20.25;11.68;;;12.40;99.90;;;;;;5078606;28;20101;-62
2021/08/24 03:38:00;;;;;;;27.27;12.32;;;12.30;99.90;;;;;;5063942;28;20293;-61
2021/08/24 03:40:26;;;;;;;14.52;9.95;;;12.30;99.90;;;;;;5077154;28;20611;-61
2021/08/24 03:42:54;;;;;;;20.08;12.55;;;12.30;99.90;;;;;;5066683;28;20046;-61
2021/08/24 03:45:19;;;;;;;18.55;10.93;;;12.30;99.90;;;;;;5076615;28;20040;-62
2021/08/24 03:47:45;;;;;;;17.95;12.23;;;12.20;99.90;;;;;;5061393;28;20051;-62
2021/08/24 03:50:11;;;;;;;27.30;11.07;;;12.30;99.90;;;;;;5074503;28;20110;-62
2021/08/24 03:52:36;;;;;;;20.73;11.95;;;12.20;99.90;;;;;;5062058;28;20084;-62
2021/08/24 03:55:02;;;;;;;21.63;12.90;;;12.20;99.90;;;;;;5071464;28;20143;-62
2021/08/24 03:57:28;;;;;;;19.75;12.95;;;12.20;99.90;;;;;;5064840;28;20041;-62
2021/08/24 03:59:55;;;;;;;33.13;15.05;;;12.30;99.90;;;;;;5066060;28;20040;-62
2021/08/24 04:02:20;;;;;;;21.83;13.85;;;12.30;99.90;;;;;;5066616;28;20140;-62
2021/08/24 04:04:46;;;;;;;32.33;17.38;;;12.30;99.90;;;;;;5053649;28;20041;-61
2021/08/24 04:07:12;;;;;;;32.28;16.77;;;12.30;99.90;;;;;;5069298;28;20049;-61
2021/08/24 04:09:38;;;;;;;26.13;15.05;;;12.30;99.90;;;;;;5057002;28;20072;-62
2021/08/24 04:12:04;;;;;;;33.85;15.80;;;12.30;99.90;;;;;;5080272;28;20048;-61
2021/08/24 04:14:29;;;;;;;29.98;15.05;;;12.20;99.90;;;;;;5072948;28;20079;-62
2021/08/24 04:16:55;;;;;;;24.90;14.40;;;12.20;99.90;;;;;;5074815;28;20036;-62
2021/08/24 04:19:20;;;;;;;22.80;13.75;;;12.10;99.90;;;;;;5075603;28;20041;-62
2021/08/24 04:21:46;;;;;;;29.92;14.88;;;12.10;99.90;;;;;;5069200;28;20044;-61
2021/08/24 04:24:12;;;;;;;23.13;15.15;;;12.10;99.90;;;;;;5078141;28;20140;-62
2021/08/24 04:26:38;;;;;;;20.50;13.65;;;12.00;99.90;;;;;;5058979;28;20037;-62
2021/08/24 04:29:04;;;;;;;31.45;16.13;;;11.90;99.90;;;;;;5071883;28;20099;-61
2021/08/24 04:31:31;;;;;;;34.67;15.45;;;12.00;99.90;;;;;;5056381;28;20036;-62
2021/08/24 04:33:58;;;;;;;41.08;18.85;;;12.00;99.90;;;;;;5074059;28;20415;-62
2021/08/24 04:36:23;;;;;;;31.85;16.45;;;12.00;99.90;;;;;;5082567;28;20036;-62
2021/08/24 04:38:49;;;;;;;37.20;18.08;;;12.00;99.90;;;;;;5066830;28;20049;-61
2021/08/24 04:41:15;;;;;;;34.15;18.75;;;12.10;99.90;;;;;;5080071;28;20041;-62
2021/08/24 04:43:41;;;;;;;37.53;18.58;;;12.10;99.90;;;;;;5065748;28;20040;-62
2021/08/24 04:46:07;;;;;;;28.65;16.85;;;12.10;99.90;;;;;;5076013;28;20101;-62
2021/08/24 04:48:33;;;;;;;38.38;18.23;;;12.20;99.90;;;;;;5070652;28;20056;-61
2021/08/24 04:50:59;;;;;;;32.83;17.90;;;12.20;99.90;;;;;;5086442;28;20055;-62
2021/08/24 04:53:25;;;;;;;27.95;16.70;;;12.20;99.90;;;;;;5061387;28;20044;-62
2021/08/24 04:55:53;;;;;;;30.65;17.35;;;12.30;99.90;;;;;;5076127;28;20048;-62
2021/08/24 04:58:19;;;;;;;34.08;17.20;;;12.30;99.90;;;;;;5061319;28;20048;-61
2021/08/24 05:00:46;;;;;;;29.90;16.75;;;12.30;99.90;;;;;;5073525;28;20055;-61
2021/08/24 05:03:11;;;;;;;25.75;14.82;;;12.30;99.90;;;;;;5059519;28;20076;-61
2021/08/24 05:05:37;;;;;;;32.78;16.10;;;12.30;99.90;;;;;;5072759;28;20045;-61
2021/08/24 05:08:04;;;;;;;27.83;15.48;;;12.20;99.90;;;;;;5058169;28;20048;-61
2021/08/24 05:10:30;;;;;;;27.88;16.13;;;12.20;99.90;;;;;;5063464;28;20104;-63
2021/08/24 05:12:55;;;;;;;28.27;16.40;;;12.10;99.90;;;;;;5060680;28;20041;-63
2021/08/24 05:15:22;;;;;;;29.42;15.70;;;12.20;99.90;;;;;;5065748;28;20125;-62
2021/08/24 05:17:49;;;;;;;31.77;17.60;;;12.20;99.90;;;;;;5062785;28;20041;-62
2021/08/24 05:20:16;;;;;;;29.73;17.50;;;12.30;99.90;;;;;;5065157;28;20485;-62
2021/08/24 05:22:42;;;;;;;28.83;15.75;;;12.40;99.90;;;;;;5077473;28;20041;-62
2021/08/24 05:25:09;;;;;;;38.50;17.33;;;12.30;99.90;;;;;;5065641;28;20071;-62
2021/08/24 05:27:35;;;;;;;32.13;15.87;;;12.40;99.90;;;;;;5067558;28;20070;-62
2021/08/24 05:30:02;;;;;;;30.38;17.52;;;12.40;99.90;;;;;;5071686;28;20316;-62
2021/08/24 05:32:28;;;;;;;;;;;12.60;99.90;;;;;;5065950;28;20041;-62
2021/08/24 05:34:54;;;;;;;26.55;14.90;;;12.70;99.90;;;;;;5073644;28;19968;-62
2021/08/24 05:37:20;;;;;;;23.75;15.57;;;12.60;99.90;;;;;;5061466;28;20497;-62
2021/08/24 05:39:45;;;;;;;22.15;14.02;;;12.70;99.90;;;;;;5074537;28;20045;-62
2021/08/24 05:42:11;;;;;;;28.42;14.52;;;12.70;99.90;;;;;;5053483;28;20124;-62
2021/08/24 05:44:36;;;;;;;19.50;13.18;;;12.70;99.90;;;;;;5074262;28;20132;-62
2021/08/24 05:47:03;;;;;;;21.08;13.05;;;12.70;99.90;;;;;;5074617;28;20101;-62
2021/08/24 05:49:35;;;;;;;19.85;12.65;;;12.80;99.90;;;;;;5074806;28;20048;-62
2021/08/24 05:52:01;;;;;;;20.98;14.13;;;12.80;99.90;;;;;;5080929;28;20044;-62
2021/08/24 05:54:27;;;;;;;18.17;12.95;;;12.80;99.90;;;;;;5070794;28;20403;-62
2021/08/24 05:56:53;;;;;;;23.23;14.18;;;12.90;99.90;;;;;;5069580;28;20514;-62
2021/08/24 05:59:18;;;;;;;25.77;13.77;;;12.90;99.90;;;;;;5069567;28;20056;-62
2021/08/24 06:01:44;;;;;;;17.80;11.98;;;12.90;99.90;;;;;;5078338;28;20394;-62
2021/08/24 06:04:10;;;;;;;16.48;12.48;;;13.00;99.90;;;;;;5067766;28;20048;-62
2021/08/24 06:06:38;;;;;;;26.08;13.52;;;13.10;99.90;;;;;;5079345;28;20064;-62
2021/08/24 06:09:06;;;;;;;21.95;13.85;;;13.20;99.90;;;;;;5064855;28;20036;-62
2021/08/24 06:11:34;;;;;;;;;;;13.40;99.90;;;;;;5078487;28;20062;-62
2021/08/24 06:14:02;;;;;;;24.08;12.05;;;13.50;99.90;;;;;;5069671;28;19976;-62
2021/08/24 06:16:29;;;;;;;31.63;13.05;;;13.70;99.90;;;;;;5076602;28;20033;-62
2021/08/24 06:18:55;;;;;;;21.20;10.63;;;13.90;99.90;;;;;;5061486;28;20040;-62
2021/08/24 06:21:21;;;;;;;11.40;9.20;;;14.00;99.90;;;;;;5074489;28;20037;-62
2021/08/24 06:23:48;;;;;;;15.57;8.93;;;14.30;99.90;;;;;;5059900;28;20105;-62
2021/08/24 06:26:14;;;;;;;17.35;9.63;;;14.40;99.90;;;;;;5067291;28;20045;-62
2021/08/24 06:28:40;;;;;;;9.02;6.90;;;14.50;99.90;;;;;;5062804;28;20126;-62
2021/08/24 06:31:06;;;;;;;10.70;7.78;;;14.70;99.90;;;;;;5061013;28;20037;-62
2021/08/24 06:33:36;;;;;;;12.32;6.78;;;14.80;99.90;;;;;;5067171;28;20041;-62
2021/08/24 06:36:02;;;;;;;8.23;6.53;;;15.00;99.90;;;;;;5058341;28;20045;-62
2021/08/24 06:38:29;;;;;;;13.20;7.57;;;14.90;99.90;;;;;;5076053;28;20109;-62
2021/08/24 06:40:55;;;;;;;8.57;6.13;;;15.00;99.90;;;;;;5059483;28;20049;-62
2021/08/24 06:43:21;;;;;;;11.93;5.85;;;15.10;99.90;;;;;;5060320;28;20048;-62
2021/08/24 06:45:47;;;;;;;8.18;6.18;;;15.10;99.90;;;;;;5054959;28;20044;-62
2021/08/24 06:48:13;;;;;;;13.48;6.30;;;15.30;99.90;;;;;;5057915;28;20043;-62
2021/08/24 06:50:39;;;;;;;10.15;5.28;;;15.40;99.90;;;;;;5054952;28;20128;-62
2021/08/24 06:53:05;;;;;;;9.45;5.80;;;15.40;99.90;;;;;;5065694;28;20476;-62
2021/08/24 06:55:31;;;;;;;12.98;4.88;;;15.50;99.90;;;;;;5066824;28;20065;-62
2021/08/24 06:58:01;;;;;;;8.18;5.30;;;15.40;99.90;;;;;;5053362;28;20049;-62
2021/08/24 07:00:27;;;;;;;9.45;4.20;;;15.60;99.90;;;;;;5075706;28;20416;-62
2021/08/24 07:02:54;;;;;;;7.97;4.47;;;15.70;99.90;;;;;;5067683;28;20131;-62
2021/08/24 07:05:23;;;;;;;9.57;4.25;;;15.90;99.90;;;;;;5068444;28;20468;-62
2021/08/24 07:07:49;;;;;;;9.80;3.88;;;16.00;99.90;;;;;;5070535;28;20049;-62
2021/08/24 07:10:15;;;;;;;5.88;3.40;;;16.20;99.90;;;;;;5072060;28;20041;-62
2021/08/24 07:12:42;;;;;;;6.60;3.07;;;16.40;99.90;;;;;;5063012;28;20049;-62
2021/08/24 07:15:09;;;;;;;7.07;2.90;;;16.60;99.90;;;;;;5060397;28;20132;-62
2021/08/24 07:17:35;;;;;;;7.30;3.13;;;16.70;99.90;;;;;;5074912;28;20045;-62
2021/08/24 07:20:01;;;;;;;11.13;4.32;;;16.90;99.90;;;;;;5066482;28;20041;-62
2021/08/24 07:22:26;;;;;;;6.95;2.60;;;17.00;99.90;;;;;;5076792;28;20048;-62
2021/08/24 07:24:52;;;;;;;7.78;3.17;;;17.10;99.90;;;;;;5063637;28;20098;-62
2021/08/24 07:27:18;;;;;;;9.63;3.08;;;17.30;99.90;;;;;;5061758;28;20044;-61
2021/08/24 07:29:44;;;;;;;5.20;2.50;;;17.40;99.90;;;;;;5080837;28;20041;-63
2021/08/24 07:32:09;;;;;;;8.52;2.58;;;17.60;99.90;;;;;;5067627;28;20040;-62
2021/08/24 07:34:37;;;;;;;10.10;2.67;;;17.70;99.90;;;;;;5081498;28;20052;-62
2021/08/24 07:37:03;;;;;;;7.65;2.85;;;17.90;99.90;;;;;;5065793;28;20036;-62
2021/08/24 07:39:29;;;;;;;5.97;2.70;;;18.20;99.90;;;;;;5078621;28;20126;-61
2021/08/24 07:41:55;;;;;;;7.25;2.90;;;18.50;99.90;;;;;;5062839;28;20048;-61
2021/08/24 07:44:24;;;;;;;8.63;3.15;;;18.60;99.90;;;;;;5062810;28;20087;-62
2021/08/24 07:46:51;;;;;;;6.53;2.20;;;18.40;99.90;;;;;;5062374;28;20040;-62
2021/08/24 07:49:18;;;;;;;5.55;2.30;;;18.30;99.90;;;;;;5075725;28;20040;-62
2021/08/24 07:51:44;;;;;;;6.40;2.53;;;18.10;99.90;;;;;;5060344;28;20051;-62
2021/08/24 07:54:10;;;;;;;4.88;2.30;;;18.00;99.90;;;;;;5072759;28;20048;-62
2021/08/24 07:56:36;;;;;;;8.52;2.60;;;17.90;99.90;;;;;;5059015;28;20108;-62
2021/08/24 07:59:01;;;;;;;5.03;2.80;;;17.90;99.90;;;;;;5072787;28;20450;-62
2021/08/24 08:01:27;;;;;;;3.42;1.77;;;18.10;99.90;;;;;;5055703;28;20049;-62
2021/08/24 08:03:53;;;;;;;6.70;2.30;;;18.40;99.90;;;;;;5064712;28;20086;-63
2021/08/24 08:06:18;;;;;;;8.27;2.90;;;18.40;99.90;;;;;;5056116;28;20041;-62
2021/08/24 08:08:44;;;;;;;4.38;1.80;;;18.40;99.90;;;;;;5084987;28;20075;-62
2021/08/24 08:11:10;;;;;;;6.90;2.22;;;18.60;99.90;;;;;;5071178;28;20037;-62
2021/08/24 08:13:36;;;;;;;4.82;1.77;;;18.90;99.90;;;;;;5065394;28;20146;-61
2021/08/24 08:16:01;;;;;;;4.47;1.92;;;18.60;99.90;;;;;;5081314;28;20043;-63
2021/08/24 08:18:27;;;;;;;4.53;1.75;;;18.60;99.90;;;;;;5066416;28;20049;-62
2021/08/24 08:20:53;;;;;;;5.20;1.92;;;18.60;99.90;;;;;;5079185;28;20044;-62
2021/08/24 08:23:20;;;;;;;5.65;2.10;;;18.90;99.90;;;;;;5065801;28;20122;-62
2021/08/24 08:25:46;;;;;;;5.63;2.30;;;18.80;99.90;;;;;;5053816;28;20127;-62
2021/08/24 08:28:12;;;;;;;7.07;2.50;;;18.70;99.90;;;;;;5055457;28;20045;-62
2021/08/24 08:30:41;;;;;;;4.97;2.30;;;18.70;99.90;;;;;;5050838;28;20062;-62
2021/08/24 08:33:07;;;;;;;6.20;2.05;;;18.60;99.90;;;;;;5079577;28;20068;-62
2021/08/24 08:35:33;;;;;;;8.07;2.40;;;18.70;99.90;;;;;;5069540;28;20049;-62
2021/08/24 08:37:59;;;;;;;6.47;1.70;;;18.70;99.90;;;;;;5078592;28;20032;-62
2021/08/24 08:40:32;;;;;;;8.43;2.10;;;18.80;99.90;;;;;;5072090;28;20409;-62
2021/08/24 08:43:26;;;;;;;6.20;1.83;;;19.00;99.90;;;;;;5067855;28;20066;-62
2021/08/24 08:45:55;;;;;;;5.50;2.17;;;19.20;99.90;;;;;;5063625;28;20089;-62
2021/08/24 08:48:46;;;;;;;6.22;1.73;;;19.40;99.90;;;;;;5050004;28;20037;-62
2021/08/24 08:51:39;;;;;;;4.65;2.13;;;19.50;99.90;;;;;;5058100;28;20045;-62
2021/08/24 08:54:32;;;;;;;5.78;1.80;;;19.60;99.90;;;;;;5077834;28;20048;-62
2021/08/24 08:57:07;;;;;;;5.97;1.80;;;20.10;99.90;;;;;;5065122;28;20075;-61
2021/08/24 08:59:45;;;;;;;5.85;1.83;;;20.20;99.90;;;;;;5064690;28;20048;-62
2021/08/24 09:02:20;;;;;;;3.22;1.80;;;19.90;99.90;;;;;;5061755;28;20049;-61
2021/08/24 09:04:49;;;;;;;4.40;2.08;;;19.70;99.90;;;;;;5077836;28;20044;-61
2021/08/24 09:07:36;;;;;;;3.63;2.20;;;19.70;99.90;;;;;;5072452;28;20040;-63
2021/08/24 09:10:05;;;;;;;3.78;1.77;;;19.80;99.90;;;;;;5076723;28;20049;-61
2021/08/24 09:12:31;;;;;;;4.50;1.95;;;19.80;99.90;;;;;;5062719;28;20056;-62
2021/08/24 09:15:00;;;;;;;3.67;1.52;;;19.70;99.90;;;;;;5075681;28;20041;-62
2021/08/24 09:17:36;;;;;;;6.38;2.15;;;19.80;99.90;;;;;;5061178;28;20040;-63
2021/08/24 09:20:26;;;;;;;6.45;2.15;;;20.00;99.90;;;;;;5074259;28;20460;-61
2021/08/24 09:22:53;;;;;;;5.65;1.80;;;20.20;99.90;;;;;;5053364;28;20037;-62
2021/08/24 09:25:40;;;;;;;5.57;1.73;;;19.80;99.90;;;;;;5076773;28;20045;-63
2021/08/24 09:28:22;;;;;;;4.22;1.50;;;20.10;99.90;;;;;;5049797;28;20067;-63
2021/08/24 09:30:49;;;;;;;4.97;2.00;;;20.30;99.90;;;;;;5064875;28;20068;-62
2021/08/24 09:33:14;;;;;;;4.93;1.98;;;20.70;99.90;;;;;;5072035;28;20044;-61
2021/08/24 09:35:43;;;;;;;6.72;1.98;;;20.80;99.90;;;;;;5066956;28;20045;-62
2021/08/24 09:38:14;;;;;;;6.38;1.80;;;20.80;99.90;;;;;;5046997;28;20038;-64
2021/08/24 09:40:52;;;;;;;3.80;1.77;;;21.00;99.90;;;;;;5060153;28;20045;-62
2021/08/24 09:43:24;;;;;;;3.53;2.70;;;21.00;99.90;;;;;;5047236;28;20037;-62
2021/08/24 09:46:06;;;;;;;4.68;1.95;;;20.90;99.90;;;;;;5059176;28;20196;-61
2021/08/24 09:48:50;;;;;;;5.85;1.63;;;20.80;99.90;;;;;;5061644;28;20048;-62
2021/08/24 09:51:23;;;;;;;5.57;2.20;;;20.60;99.90;;;;;;5068845;28;20105;-62
2021/08/24 09:53:54;;;;;;;3.35;1.63;;;20.90;99.90;;;;;;5083096;28;20102;-62
2021/08/24 09:56:25;;;;;;;8.30;1.77;;;21.10;99.90;;;;;;5067602;28;20049;-62
2021/08/24 09:58:51;;;;;;;6.57;2.05;;;21.00;99.90;;;;;;5081000;28;20119;-62
2021/08/24 10:01:17;;;;;;;2.50;1.63;;;20.80;99.90;;;;;;5066160;28;20042;-62
2021/08/24 10:03:46;;;;;;;3.25;1.67;;;20.60;99.90;;;;;;5065553;28;20056;-62
2021/08/24 10:06:29;;;;;;;4.72;1.73;;;20.80;99.90;;;;;;5066256;28;20101;-61
2021/08/24 10:09:23;;;;;;;3.67;2.15;;;21.20;99.90;;;;;;5060882;28;20067;-60
2021/08/24 10:11:49;;;;;;;5.60;1.98;;;20.80;99.90;;;;;;5063437;28;20083;-61
2021/08/24 10:14:27;;;;;;;4.63;1.77;;;20.80;99.90;;;;;;5079040;28;20040;-61
2021/08/24 10:16:56;;;;;;;;;;;21.10;99.90;;;;;;5061768;28;20059;-60
2021/08/24 10:19:26;;;;;;;3.35;1.80;;;21.20;99.90;;;;;;5074961;28;19920;-62
2021/08/24 10:22:07;;;;;;;4.75;1.73;;;21.20;99.90;;;;;;5067609;28;20060;-60
2021/08/24 10:24:39;;;;;;;2.92;1.63;;;21.40;99.90;;;;;;5073308;28;20056;-60
2021/08/24 10:27:43;;;;;;;4.97;1.77;;;21.40;99.90;;;;;;5065422;28;20045;-62
2021/08/24 10:30:35;;;;;;;3.78;2.13;;;21.50;99.90;;;;;;5065162;28;20122;-60
2021/08/24 10:33:01;;;;;;;5.25;1.95;;;21.40;99.90;;;;;;5080963;28;20043;-60
2021/08/24 10:35:33;;;;;;;4.82;2.05;;;21.50;99.90;;;;;;5079954;28;20055;-61
2021/08/24 10:37:59;;;;;;;3.80;1.52;;;21.90;99.90;;;;;;5063234;28;20136;-61
2021/08/24 10:40:42;;;;;;;6.55;1.73;;;21.70;99.90;;;;;;5062093;28;20082;-61
2021/08/24 10:43:11;;;;;;;4.68;1.80;;;21.60;99.90;;;;;;5076103;28;20156;-61
2021/08/24 10:45:59;;;;;;;4.72;2.05;;;22.00;99.90;;;;;;5053387;28;20037;-62
2021/08/24 10:48:25;;;;;;;2.60;1.42;;;21.40;99.90;;;;;;5046274;28;20045;-61
2021/08/24 10:51:05;;;;;;;4.60;2.40;;;21.20;99.90;;;;;;5059581;28;20131;-62
2021/08/24 10:53:46;;;;;;;9.25;2.00;;;21.50;99.90;;;;;;5045559;28;20084;-62
2021/08/24 10:56:20;;;;;;;5.13;1.88;;;21.50;99.90;;;;;;5058553;28;20041;-61
2021/08/24 10:59:07;;;;;;;4.65;1.70;;;21.40;99.90;;;;;;5082987;28;20045;-62
2021/08/24 11:01:58;;;;;;;3.97;2.20;;;21.40;99.90;;;;;;5068153;28;20053;-61
2021/08/24 11:04:24;;;;;;;5.82;2.25;;;21.20;99.90;;;;;;5058361;28;20041;-62
2021/08/24 11:06:58;;;;;;;4.68;1.83;;;21.20;99.90;;;;;;5060477;28;20049;-62
2021/08/24 11:09:24;;;;;;;8.55;2.13;;;21.00;99.90;;;;;;5073694;28;20055;-62
2021/08/24 11:11:58;;;;;;;4.50;1.90;;;20.90;99.90;;;;;;5063740;28;20036;-62
2021/08/24 11:14:33;;;;;;;4.18;1.63;;;21.00;99.90;;;;;;5079102;28;20075;-62
2021/08/24 11:17:24;;;;;;;6.88;2.38;;;20.90;99.90;;;;;;5059664;28;20041;-62
2021/08/24 11:20:05;;;;;;;4.43;2.20;;;21.10;99.90;;;;;;5074166;28;20048;-62
2021/08/24 11:22:58;;;;;;;4.55;2.13;;;21.20;99.90;;;;;;5059048;28;20044;-62
2021/08/24 11:25:44;;;;;;;5.45;1.98;;;21.10;99.90;;;;;;5047526;28;20051;-62
2021/08/24 11:28:55;;;;;;;4.82;2.13;;;21.20;99.90;;;;;;5054323;28;20041;-62
2021/08/24 11:31:42;;;;;;;6.35;2.42;;;21.50;99.90;;;;;;5051605;28;20106;-62
2021/08/24 11:34:16;;;;;;;4.53;1.92;;;21.90;99.90;;;;;;5080185;28;20447;-62
2021/08/24 11:36:55;;;;;;;6.95;2.10;;;21.80;99.90;;;;;;5077128;28;20120;-62
2021/08/24 11:39:27;;;;;;;3.03;1.90;;;21.60;99.90;;;;;;5061270;28;20049;-62
2021/08/24 11:41:59;;;;;;;5.72;1.80;;;21.40;99.90;;;;;;5060241;28;20174;-63
2021/08/24 11:44:34;;;;;;;6.20;2.15;;;21.20;99.90;;;;;;5056247;28;20045;-62
2021/08/24 11:47:12;;;;;;;6.00;1.80;;;21.40;99.90;;;;;;5066359;28;20045;-63
2021/08/24 11:49:47;;;;;;;5.05;2.10;;;22.00;99.90;;;;;;5055056;28;20493;-62
2021/08/24 11:52:34;;;;;;;2.88;1.75;;;23.00;99.90;;;;;;5073266;28;20032;-62
2021/08/24 11:55:19;;;;;;;8.23;2.50;;;23.00;99.90;;;;;;5052514;28;20071;-62
2021/08/24 11:58:17;;;;;;;7.45;2.10;;;22.40;99.90;;;;;;5071487;28;20048;-62
2021/08/24 12:00:51;;;;;;;3.90;1.88;;;22.10;99.90;;;;;;5055407;28;20057;-62
2021/08/24 12:03:21;;;;;;;4.13;2.45;;;22.00;99.90;;;;;;5062453;28;20048;-63
2021/08/24 12:05:52;;;;;;;7.85;2.03;;;22.30;99.90;;;;;;5078019;28;21968;-63
2021/08/24 12:08:26;;;;;;;7.78;2.17;;;22.60;99.90;;;;;;5072918;28;20033;-61
2021/08/24 12:10:52;;;;;;;6.05;2.10;;;22.40;99.90;;;;;;5060324;28;20057;-61
2021/08/24 12:13:27;;;;;;;3.92;2.05;;;22.20;99.90;;;;;;5071538;28;20045;-61
2021/08/24 12:16:22;;;;;;;3.78;2.10;;;22.30;99.90;;;;;;5071593;28;20051;-61
2021/08/24 12:18:49;;;;;;;9.85;2.40;;;22.40;99.90;;;;;;5076604;28;20037;-62
2021/08/24 12:21:26;;;;;;;;;;;23.10;99.90;;;;;;5071780;28;20037;-62
2021/08/24 12:23:52;;;;;;;8.80;2.38;;;23.40;99.90;;;;;;5074411;28;19927;-62
2021/08/24 12:26:34;;;;;;;10.23;1.77;;;23.10;99.90;;;;;;5075374;28;20044;-62
2021/08/24 12:29:31;;;;;;;7.85;2.30;;;22.60;99.90;;;;;;5064877;28;20639;-62
2021/08/24 12:31:58;;;;;;;4.00;2.10;;;22.10;99.90;;;;;;5076811;28;20092;-62
2021/08/24 12:34:35;;;;;;;4.37;2.23;;;21.70;99.90;;;;;;5085013;28;20037;-63
2021/08/24 12:37:07;;;;;;;5.68;1.95;;;21.90;99.90;;;;;;5084788;28;20495;-61
2021/08/24 12:39:37;;;;;;;9.40;2.33;;;22.30;99.90;;;;;;5069655;28;20527;-63
2021/08/24 12:42:21;;;;;;;5.18;2.13;;;22.90;99.90;;;;;;5082993;28;20040;-62
2021/08/24 12:44:50;;;;;;;4.30;2.42;;;22.90;99.90;;;;;;5068455;28;20055;-61
2021/08/24 12:47:21;;;;;;;5.30;2.58;;;22.60;99.90;;;;;;5082197;28;20059;-62
2021/08/24 12:49:47;;;;;;;4.28;2.00;;;22.50;99.90;;;;;;5061909;28;20051;-60
2021/08/24 12:52:18;;;;;;;6.55;2.13;;;22.30;99.90;;;;;;5080323;28;20044;-61
2021/08/24 12:54:49;;;;;;;10.85;2.22;;;22.40;99.90;;;;;;5065466;28;20041;-61
2021/08/24 12:57:52;;;;;;;4.65;2.38;;;22.20;99.90;;;;;;5078661;28;20044;-61